createdAt,value
2023-03-20T00:00:35.730Z,17.70
2023-03-20T00:03:03.743Z,17.50
2023-03-20T00:05:32.389Z,18.13
2023-03-20T00:08:00.284Z,18.37
2023-03-20T00:10:34.094Z,19.50
2023-03-20T00:13:04.846Z,19.90
2023-03-20T00:15:36.481Z,20.83
2023-03-20T00:18:06.479Z,19.10
2023-03-20T00:20:34.353Z,19.33
2023-03-20T00:23:02.694Z,20.93
2023-03-20T00:25:30.374Z,18.60
2023-03-20T00:27:58.025Z,19.70
2023-03-20T00:30:35.920Z,19.03
2023-03-20T00:33:03.621Z,17.97
2023-03-20T00:35:32.334Z,18.30
2023-03-20T00:38:00.200Z,17.80
2023-03-20T00:40:31.719Z,18.17
2023-03-20T00:43:01.945Z,17.70
2023-03-20T00:45:32.876Z,17.37
2023-03-20T00:48:01.819Z,17.00
2023-03-20T00:50:31.527Z,17.63
2023-03-20T00:53:00.584Z,19.20
2023-03-20T00:55:30.682Z,18.40
2023-03-20T00:58:00.259Z,18.23
2023-03-20T01:00:41.750Z,18.27
2023-03-20T01:03:16.949Z,18.03
2023-03-20T01:05:45.422Z,18.77
2023-03-20T01:08:15.444Z,18.50
2023-03-20T01:10:45.193Z,19.67
2023-03-20T01:13:21.873Z,18.30
2023-03-20T01:15:52.506Z,19.20
2023-03-20T01:18:21.978Z,18.80
2023-03-20T01:20:50.785Z,19.10
2023-03-20T01:23:18.465Z,19.47
2023-03-20T01:25:46.415Z,18.80
2023-03-20T01:28:16.569Z,18.80
2023-03-20T01:30:44.238Z,18.47
2023-03-20T01:33:18.634Z,19.10
2023-03-20T01:35:48.001Z,19.13
2023-03-20T01:38:20.299Z,18.07
2023-03-20T01:40:57.101Z,19.50
2023-03-20T01:43:26.212Z,18.50
2023-03-20T01:46:02.229Z,19.87
2023-03-20T01:48:57.089Z,17.83
2023-03-20T01:51:26.927Z,17.93
2023-03-20T01:54:03.134Z,19.20
2023-03-20T01:56:33.885Z,18.30
2023-03-20T01:59:11.159Z,19.43
2023-03-20T02:01:40.085Z,18.93
2023-03-20T02:04:09.873Z,19.40
2023-03-20T02:06:40.213Z,19.10
2023-03-20T02:09:08.266Z,18.60
2023-03-20T02:11:38.700Z,19.00
2023-03-20T02:14:06.716Z,19.87
2023-03-20T02:16:34.364Z,19.07
2023-03-20T02:19:02.898Z,18.93
2023-03-20T02:22:17.906Z,20.03
2023-03-20T02:25:25.110Z,18.80
2023-03-20T02:28:14.030Z,20.83
2023-03-20T02:31:01.178Z,20.03
2023-03-20T02:33:53.325Z,20.10
2023-03-20T02:37:12.359Z,20.40
2023-03-20T02:40:12.663Z,20.53
2023-03-20T02:42:47.912Z,21.00
2023-03-20T02:45:21.045Z,20.87
2023-03-20T02:47:54.681Z,19.90
2023-03-20T02:50:34.667Z,20.97
2023-03-20T02:53:16.827Z,20.70
2023-03-20T02:55:52.333Z,20.30
2023-03-20T02:58:26.636Z,21.17
2023-03-20T03:01:01.374Z,20.30
2023-03-20T03:03:35.225Z,21.13
2023-03-20T03:06:10.454Z,22.23
2023-03-20T03:08:44.248Z,21.80
2023-03-20T03:11:13.849Z,20.80
2023-03-20T03:13:46.020Z,22.33
2023-03-20T03:16:18.553Z,21.20
2023-03-20T03:18:47.692Z,21.60
2023-03-20T03:21:18.324Z,21.10
2023-03-20T03:23:48.723Z,22.70
2023-03-20T03:26:22.291Z,20.67
2023-03-20T03:28:53.704Z,20.77
2023-03-20T03:31:23.020Z,21.17
2023-03-20T03:33:52.907Z,20.30
2023-03-20T03:36:30.511Z,22.13
2023-03-20T03:39:03.769Z,21.90
2023-03-20T03:41:38.534Z,20.50
2023-03-20T03:44:12.382Z,20.43
2023-03-20T03:46:45.159Z,20.20
2023-03-20T03:49:17.837Z,20.80
2023-03-20T03:51:49.347Z,21.63
2023-03-20T03:54:21.660Z,22.70
2023-03-20T03:56:53.027Z,21.23
2023-03-20T03:59:25.964Z,22.80
2023-03-20T04:01:55.380Z,22.93
2023-03-20T04:04:24.800Z,24.40
2023-03-20T04:06:53.072Z,24.90
2023-03-20T04:09:20.779Z,27.57
2023-03-20T04:11:53.385Z,29.07
2023-03-20T04:14:21.834Z,29.77
2023-03-20T04:16:49.431Z,32.57
2023-03-20T04:19:17.198Z,31.47
2023-03-20T04:21:45.665Z,31.13
2023-03-20T04:24:13.498Z,32.57
2023-03-20T04:26:41.185Z,35.43
2023-03-20T04:29:10.433Z,32.70
2023-03-20T04:31:38.128Z,31.23
2023-03-20T04:34:06.163Z,32.50
2023-03-20T04:36:33.803Z,32.03
2023-03-20T04:39:01.531Z,29.33
2023-03-20T04:41:29.466Z,29.80
2023-03-20T04:43:57.135Z,28.10
2023-03-20T04:46:26.428Z,31.03
2023-03-20T04:48:54.077Z,28.50
2023-03-20T04:51:21.643Z,29.60
2023-03-20T04:53:49.300Z,30.07
2023-03-20T04:56:16.922Z,30.73
2023-03-20T04:58:44.662Z,30.17
2023-03-20T05:01:12.366Z,32.13
2023-03-20T05:03:41.448Z,30.40
2023-03-20T05:06:10.008Z,30.10
2023-03-20T05:08:37.774Z,30.40
2023-03-20T05:11:05.936Z,30.37
2023-03-20T05:13:33.506Z,31.00
2023-03-20T05:16:01.241Z,30.50
2023-03-20T05:18:28.857Z,29.93
2023-03-20T05:20:57.844Z,31.37
2023-03-20T05:23:25.500Z,31.50
2023-03-20T05:25:53.119Z,30.03
2023-03-20T05:28:20.723Z,29.30
2023-03-20T05:30:48.437Z,30.73
2023-03-20T05:33:16.270Z,29.47
2023-03-20T05:35:44.672Z,31.30
2023-03-20T05:38:13.677Z,31.57
2023-03-20T05:40:41.893Z,31.67
2023-03-20T05:43:09.835Z,33.80
2023-03-20T05:45:37.814Z,33.70
2023-03-20T05:48:06.158Z,33.97
2023-03-20T05:50:33.931Z,33.47
2023-03-20T05:53:01.852Z,34.40
2023-03-20T05:55:31.018Z,34.50
2023-03-20T05:57:58.670Z,33.83
2023-03-20T06:00:27.065Z,32.80
2023-03-20T06:02:54.829Z,32.67
2023-03-20T06:05:23.296Z,34.03
2023-03-20T06:07:50.977Z,35.30
2023-03-20T06:10:20.015Z,36.23
2023-03-20T06:12:49.129Z,36.20
2023-03-20T06:15:16.874Z,34.33
2023-03-20T06:17:44.686Z,34.17
2023-03-20T06:20:13.205Z,36.23
2023-03-20T06:22:41.383Z,34.23
2023-03-20T06:25:10.250Z,38.03
2023-03-20T06:27:37.866Z,37.40
2023-03-20T06:30:08.097Z,34.47
2023-03-20T06:32:35.909Z,35.50
2023-03-20T06:35:05.807Z,35.27
2023-03-20T06:37:33.746Z,34.53
2023-03-20T06:40:01.536Z,34.17
2023-03-20T06:42:29.156Z,36.27
2023-03-20T06:44:56.948Z,33.27
2023-03-20T06:47:27.085Z,34.70
2023-03-20T06:49:54.732Z,35.03
2023-03-20T06:52:22.699Z,35.10
2023-03-20T06:54:51.339Z,33.50
2023-03-20T06:57:21.147Z,36.37
2023-03-20T06:59:48.836Z,33.90
2023-03-20T07:02:17.110Z,34.60
2023-03-20T07:04:46.814Z,35.30
2023-03-20T07:07:14.829Z,35.50
2023-03-20T07:09:42.563Z,33.30
2023-03-20T07:12:14.758Z,32.80
2023-03-20T07:14:42.801Z,32.77
2023-03-20T07:17:11.066Z,32.40
2023-03-20T07:19:39.249Z,31.70
2023-03-20T07:22:16.113Z,33.67
2023-03-20T07:24:46.670Z,33.80
2023-03-20T07:27:15.069Z,32.37
2023-03-20T07:29:42.866Z,32.30
2023-03-20T07:32:11.479Z,32.63
2023-03-20T07:34:39.209Z,32.57
2023-03-20T07:37:08.449Z,35.03
2023-03-20T07:39:36.268Z,34.70
2023-03-20T07:42:03.885Z,32.80
2023-03-20T07:44:31.614Z,35.73
2023-03-20T07:46:59.198Z,34.47
2023-03-20T07:49:27.249Z,35.43
2023-03-20T07:51:56.907Z,34.37
2023-03-20T07:54:26.273Z,34.73
2023-03-20T07:56:53.922Z,34.83
2023-03-20T07:59:21.487Z,37.10
2023-03-20T08:01:49.118Z,37.97
2023-03-20T08:04:19.515Z,36.60
2023-03-20T08:06:47.427Z,37.20
2023-03-20T08:09:15.113Z,33.07
2023-03-20T08:11:44.257Z,37.37
2023-03-20T08:14:11.942Z,35.17
2023-03-20T08:16:39.777Z,36.07
2023-03-20T08:19:07.494Z,36.70
2023-03-20T08:21:35.261Z,36.40
2023-03-20T08:24:02.880Z,36.60
2023-03-20T08:26:31.117Z,35.43
2023-03-20T08:29:00.244Z,35.67
2023-03-20T08:31:27.983Z,36.57
2023-03-20T08:33:57.328Z,33.87
2023-03-20T08:36:25.226Z,35.93
2023-03-20T08:38:52.872Z,35.07
2023-03-20T08:41:20.794Z,34.23
2023-03-20T08:43:48.632Z,36.03
2023-03-20T08:46:18.683Z,35.67
2023-03-20T08:48:46.385Z,35.80
2023-03-20T08:51:14.020Z,37.07
2023-03-20T08:53:41.777Z,35.83
2023-03-20T08:56:10.816Z,37.67
2023-03-20T08:58:38.455Z,35.43
2023-03-20T09:01:07.832Z,37.40
2023-03-20T09:03:37.271Z,34.87
2023-03-20T09:06:07.583Z,36.00
2023-03-20T09:08:35.373Z,34.60
2023-03-20T09:11:03.208Z,36.37
2023-03-20T09:13:30.808Z,37.00
2023-03-20T09:15:58.638Z,33.80
2023-03-20T09:18:26.485Z,37.10
2023-03-20T09:20:56.478Z,35.70
2023-03-20T09:23:24.177Z,36.27
2023-03-20T09:25:52.003Z,37.17
2023-03-20T09:28:19.720Z,34.67
2023-03-20T09:30:47.485Z,34.37
2023-03-20T09:33:15.679Z,35.50
2023-03-20T09:35:43.895Z,34.60
2023-03-20T09:38:13.695Z,34.57
2023-03-20T09:40:52.549Z,34.83
2023-03-20T09:43:29.906Z,32.60
2023-03-20T09:46:08.418Z,34.73
2023-03-20T09:48:42.931Z,32.50
2023-03-20T09:51:22.242Z,32.70
2023-03-20T09:53:58.662Z,32.97
2023-03-20T09:56:30.520Z,34.13
2023-03-20T09:59:00.702Z,33.43
2023-03-20T10:01:33.886Z,34.13
2023-03-20T10:04:05.546Z,33.63
2023-03-20T10:06:34.560Z,35.23
2023-03-20T10:09:07.904Z,34.70
2023-03-20T10:11:55.216Z,33.60
2023-03-20T10:14:27.714Z,34.77
2023-03-20T10:17:09.166Z,34.43
2023-03-20T10:19:44.462Z,35.13
2023-03-20T10:22:22.233Z,35.07
2023-03-20T10:24:58.441Z,35.30
2023-03-20T10:27:30.408Z,34.17
2023-03-20T10:30:14.447Z,35.43
2023-03-20T10:32:49.281Z,37.83
2023-03-20T10:35:24.712Z,36.80
2023-03-20T10:38:14.012Z,35.90
2023-03-20T10:40:44.388Z,36.07
2023-03-20T10:43:18.549Z,35.37
2023-03-20T10:45:49.984Z,35.87
2023-03-20T10:48:26.138Z,37.40
2023-03-20T10:50:57.108Z,36.13
2023-03-20T10:53:30.189Z,37.77
2023-03-20T10:56:03.407Z,36.87
2023-03-20T10:58:35.101Z,38.40
2023-03-20T11:01:03.551Z,38.03
2023-03-20T11:03:36.226Z,38.03
2023-03-20T11:06:10.358Z,38.20
2023-03-20T11:08:41.859Z,36.77
2023-03-20T11:11:11.550Z,39.23
2023-03-20T11:13:42.559Z,37.70
2023-03-20T11:16:21.793Z,38.73
2023-03-20T11:18:50.714Z,38.90
2023-03-20T11:21:22.647Z,38.33
2023-03-20T11:23:51.336Z,38.57
2023-03-20T11:26:29.016Z,38.83
2023-03-20T11:28:58.665Z,39.40
2023-03-20T11:31:32.507Z,41.83
2023-03-20T11:34:12.961Z,40.60
2023-03-20T11:36:41.319Z,40.50
2023-03-20T11:39:14.951Z,40.80
2023-03-20T11:41:48.782Z,41.10
2023-03-20T11:44:24.759Z,41.17
2023-03-20T11:46:57.774Z,42.37
2023-03-20T11:49:27.684Z,40.60
2023-03-20T11:52:00.708Z,41.50
2023-03-20T11:54:28.752Z,41.77
2023-03-20T11:56:59.573Z,40.73
2023-03-20T11:59:32.964Z,38.90
2023-03-20T12:02:02.872Z,38.47
2023-03-20T12:04:33.851Z,42.17
2023-03-20T12:07:11.103Z,41.37
2023-03-20T12:09:43.848Z,40.67
2023-03-20T12:12:32.475Z,40.87
2023-03-20T12:15:09.379Z,41.60
2023-03-20T12:17:45.306Z,41.87
2023-03-20T12:20:25.131Z,41.50
2023-03-20T12:22:59.110Z,40.93
2023-03-20T12:25:29.807Z,41.70
2023-03-20T12:28:06.255Z,40.87
2023-03-20T12:30:50.902Z,40.50
2023-03-20T12:33:27.911Z,42.23
2023-03-20T12:35:57.976Z,40.73
2023-03-20T12:38:29.195Z,38.37
2023-03-20T12:41:07.288Z,41.33
2023-03-20T12:43:50.498Z,39.87
2023-03-20T12:46:27.114Z,39.53
2023-03-20T12:49:08.578Z,38.30
2023-03-20T12:51:47.885Z,37.63
2023-03-20T12:54:28.884Z,37.73
2023-03-20T12:57:08.265Z,38.93
2023-03-20T12:59:50.092Z,39.70
2023-03-20T13:02:38.618Z,36.93
2023-03-20T13:05:18.132Z,36.97
2023-03-20T13:08:00.126Z,38.70
2023-03-20T13:10:33.632Z,38.57
2023-03-20T13:13:13.091Z,38.80
2023-03-20T13:15:59.212Z,36.27
2023-03-20T13:18:41.429Z,37.20
2023-03-20T13:21:14.645Z,38.13
2023-03-20T13:23:47.309Z,37.43
2023-03-20T13:26:30.635Z,36.93
2023-03-20T13:29:06.148Z,35.57
2023-03-20T13:31:47.045Z,34.90
2023-03-20T13:34:25.898Z,36.17
2023-03-20T13:37:22.304Z,36.37
2023-03-20T13:40:04.498Z,37.03
2023-03-20T13:42:37.941Z,35.90
2023-03-20T13:45:18.886Z,37.33
2023-03-20T13:47:49.758Z,37.10
2023-03-20T13:50:35.097Z,38.33
2023-03-20T13:53:09.684Z,36.30
2023-03-20T13:55:46.971Z,35.23
2023-03-20T13:58:31.603Z,37.00
2023-03-20T14:01:07.002Z,37.53
2023-03-20T14:03:38.617Z,37.80
2023-03-20T14:06:19.007Z,38.10
2023-03-20T14:08:49.895Z,37.90
2023-03-20T14:11:35.909Z,36.73
2023-03-20T14:14:14.449Z,35.97
2023-03-20T14:16:43.410Z,33.57
2023-03-20T14:19:19.203Z,36.00
2023-03-20T14:21:47.997Z,34.30
2023-03-20T14:24:18.589Z,31.87
2023-03-20T14:26:50.241Z,33.27
2023-03-20T14:29:32.673Z,34.50
2023-03-20T14:32:19.365Z,34.20
2023-03-20T14:34:49.855Z,32.80
2023-03-20T14:37:36.567Z,33.10
2023-03-20T14:40:15.367Z,32.93
2023-03-20T14:42:52.165Z,33.50
2023-03-20T14:45:41.985Z,32.70
2023-03-20T14:48:31.520Z,31.47
2023-03-20T14:51:12.900Z,31.00
2023-03-20T14:53:41.716Z,30.33
2023-03-20T14:56:12.481Z,33.87
2023-03-20T14:58:54.317Z,32.70
2023-03-20T15:01:29.672Z,32.57
2023-03-20T15:04:01.613Z,32.90
2023-03-20T15:06:45.256Z,32.60
2023-03-20T15:09:13.433Z,33.23
2023-03-20T15:11:43.471Z,32.53
2023-03-20T15:14:17.463Z,32.67
2023-03-20T15:16:46.817Z,31.53
2023-03-20T15:19:19.133Z,32.93
2023-03-20T15:21:49.747Z,32.40
2023-03-20T15:24:21.281Z,33.87
2023-03-20T15:26:53.940Z,32.40
2023-03-20T15:29:22.547Z,30.17
2023-03-20T15:32:12.351Z,33.17
2023-03-20T15:34:43.121Z,33.23
2023-03-20T15:37:16.193Z,30.20
2023-03-20T15:39:45.671Z,30.67
2023-03-20T15:42:15.202Z,30.93
2023-03-20T15:44:45.719Z,30.17
2023-03-20T15:47:20.533Z,31.03
2023-03-20T15:49:52.086Z,29.63
2023-03-20T15:52:27.736Z,29.97
2023-03-20T15:54:56.651Z,29.40
2023-03-20T15:57:30.950Z,28.63
2023-03-20T15:59:59.313Z,30.80
2023-03-20T16:02:27.892Z,31.43
2023-03-20T16:04:56.323Z,31.33
2023-03-20T16:07:29.847Z,30.13
2023-03-20T16:09:57.810Z,29.57
2023-03-20T16:12:26.936Z,29.17
2023-03-20T16:14:55.270Z,29.90
2023-03-20T16:17:25.349Z,29.07
2023-03-20T16:19:53.031Z,28.23
2023-03-20T16:22:25.029Z,27.63
2023-03-20T16:24:58.228Z,27.73
2023-03-20T16:27:29.828Z,27.30
2023-03-20T16:29:58.003Z,25.70
2023-03-20T16:32:34.072Z,26.30
2023-03-20T16:35:05.774Z,26.47
2023-03-20T16:37:42.877Z,25.53
2023-03-20T16:40:22.250Z,25.47
2023-03-20T16:42:54.656Z,25.97
2023-03-20T16:45:27.210Z,24.63
2023-03-20T16:48:24.720Z,27.03
2023-03-20T16:50:58.245Z,24.97
2023-03-20T16:53:30.817Z,26.30
2023-03-20T16:56:04.739Z,27.30
2023-03-20T16:58:35.085Z,28.67
2023-03-20T17:01:05.962Z,27.03
2023-03-20T17:03:38.024Z,27.37
2023-03-20T17:06:08.469Z,25.60
2023-03-20T17:08:38.884Z,26.10
2023-03-20T17:11:12.655Z,26.60
2023-03-20T17:13:41.223Z,32.63
2023-03-20T17:16:15.292Z,27.60
2023-03-20T17:18:43.006Z,26.07
2023-03-20T17:21:11.344Z,29.10
2023-03-20T17:23:39.087Z,28.50
2023-03-20T17:26:12.640Z,26.90
2023-03-20T17:28:41.686Z,28.83
2023-03-20T17:31:14.172Z,27.73
2023-03-20T17:33:42.122Z,27.93
2023-03-20T17:36:17.005Z,28.33
2023-03-20T17:38:44.925Z,28.27
2023-03-20T17:41:16.045Z,29.10
2023-03-20T17:43:43.841Z,29.30
2023-03-20T17:46:18.855Z,28.17
2023-03-20T17:48:46.782Z,27.33
2023-03-20T17:51:14.544Z,29.23
2023-03-20T17:53:42.733Z,27.90
2023-03-20T17:56:14.736Z,28.00
2023-03-20T17:58:44.628Z,28.10
2023-03-20T18:01:12.738Z,27.90
2023-03-20T18:03:40.961Z,27.83
2023-03-20T18:06:09.185Z,28.27
2023-03-20T18:08:38.851Z,28.00
2023-03-20T18:11:07.004Z,27.77
2023-03-20T18:13:36.135Z,27.93
2023-03-20T18:16:03.799Z,28.13
2023-03-20T18:18:31.389Z,28.73
2023-03-20T18:20:59.346Z,26.73
2023-03-20T18:23:26.946Z,26.10
2023-03-20T18:25:54.725Z,26.53
2023-03-20T18:28:23.184Z,26.97
2023-03-20T18:30:52.553Z,27.63
2023-03-20T18:33:25.039Z,26.63
2023-03-20T18:35:52.734Z,28.40
2023-03-20T18:38:20.580Z,27.50
2023-03-20T18:40:48.236Z,27.03
2023-03-20T18:43:16.232Z,26.57
2023-03-20T18:45:44.530Z,25.97
2023-03-20T18:48:13.625Z,26.20
2023-03-20T18:50:43.224Z,26.50
2023-03-20T18:53:11.935Z,24.63
2023-03-20T18:55:39.555Z,26.60
2023-03-20T18:58:08.992Z,24.40
2023-03-20T19:00:40.093Z,26.57
2023-03-20T19:03:09.853Z,26.37
2023-03-20T19:05:39.273Z,25.67
2023-03-20T19:08:07.272Z,28.10
2023-03-20T19:10:37.740Z,25.87
2023-03-20T19:13:07.475Z,26.83
2023-03-20T19:15:37.208Z,26.37
2023-03-20T19:18:07.208Z,25.00
2023-03-20T19:20:36.833Z,26.40
2023-03-20T19:23:08.222Z,27.10
2023-03-20T19:25:36.692Z,25.83
2023-03-20T19:28:06.202Z,26.70
2023-03-20T19:30:36.474Z,27.50
2023-03-20T19:33:06.168Z,26.83
2023-03-20T19:35:58.811Z,26.77
2023-03-20T19:38:25.287Z,26.73
2023-03-20T19:40:54.316Z,25.70
2023-03-20T19:43:22.532Z,26.47
2023-03-20T19:45:56.002Z,27.73
2023-03-20T19:48:27.389Z,27.13
2023-03-20T19:50:57.813Z,28.97
2023-03-20T19:53:29.417Z,27.27
2023-03-20T19:55:57.925Z,28.73
2023-03-20T19:58:25.593Z,27.73
2023-03-20T20:00:58.482Z,29.67
2023-03-20T20:03:28.361Z,32.60
2023-03-20T20:05:56.438Z,34.80
2023-03-20T20:08:41.376Z,34.60
2023-03-20T20:11:14.487Z,33.37
2023-03-20T20:14:04.233Z,34.40
2023-03-20T20:16:31.201Z,32.40
2023-03-20T20:18:59.188Z,30.80
2023-03-20T20:24:16.008Z,29.03
2023-03-20T20:26:54.304Z,33.67
2023-03-20T20:29:24.526Z,32.20
2023-03-20T20:31:52.504Z,33.30
2023-03-20T20:39:55.921Z,34.77
2023-03-20T20:42:25.254Z,33.17
2023-03-20T20:44:52.879Z,33.10
2023-03-20T20:47:21.220Z,32.37
2023-03-20T20:49:49.597Z,31.90
2023-03-20T20:52:17.642Z,30.63
2023-03-20T20:54:45.613Z,33.23
2023-03-20T20:57:14.325Z,31.13
2023-03-20T20:59:43.435Z,31.60
2023-03-20T21:02:12.173Z,32.07
2023-03-20T21:04:40.634Z,34.13
2023-03-20T21:07:11.051Z,32.37
2023-03-20T21:09:39.640Z,33.00
2023-03-20T21:12:08.585Z,31.90
2023-03-20T21:14:36.293Z,31.80
2023-03-20T21:17:06.435Z,30.53
2023-03-20T21:19:35.886Z,34.43
2023-03-20T21:22:04.399Z,32.07
2023-03-20T21:24:34.693Z,32.50
2023-03-20T21:27:04.620Z,32.90
2023-03-20T21:29:32.349Z,32.77
2023-03-20T21:31:59.996Z,32.40
2023-03-20T21:34:29.447Z,35.80
2023-03-20T21:36:58.077Z,34.97
2023-03-20T21:39:28.403Z,35.70
2023-03-20T21:41:56.115Z,34.97
2023-03-20T21:45:01.160Z,34.80
2023-03-20T21:59:22.910Z,33.60
2023-03-20T22:07:32.822Z,35.33
2023-03-20T22:10:35.349Z,37.77
2023-03-20T22:13:09.884Z,37.00
2023-03-20T22:18:50.624Z,38.77
2023-03-20T22:24:21.957Z,39.00
2023-03-20T22:29:51.149Z,35.57
2023-03-20T22:41:11.029Z,37.70
2023-03-20T22:46:32.428Z,40.37
2023-03-20T22:48:49.861Z,39.93
2023-03-20T22:51:18.369Z,41.20
2023-03-20T22:53:47.955Z,36.33
2023-03-20T22:56:16.910Z,38.97
2023-03-20T22:58:44.584Z,38.60
2023-03-20T23:01:12.390Z,38.30
2023-03-20T23:03:42.303Z,39.37
2023-03-20T23:06:16.366Z,39.93
2023-03-20T23:08:50.740Z,41.50
2023-03-20T23:11:23.696Z,37.33
2023-03-20T23:13:51.586Z,37.00
2023-03-20T23:16:19.585Z,36.30
2023-03-20T23:18:47.229Z,35.73
2023-03-20T23:21:14.895Z,35.13
2023-03-20T23:23:42.541Z,33.40
2023-03-20T23:26:12.606Z,32.83
2023-03-20T23:28:43.286Z,32.40
2023-03-20T23:31:15.450Z,31.13
2023-03-20T23:33:45.011Z,30.47
2023-03-20T23:36:25.015Z,29.73
2023-03-20T23:39:00.472Z,30.40
2023-03-20T23:41:53.641Z,30.93
2023-03-20T23:44:17.010Z,30.43
2023-03-20T23:46:47.599Z,32.27
2023-03-20T23:49:15.712Z,31.07
2023-03-20T23:51:43.607Z,30.57
2023-03-20T23:54:11.406Z,30.77
2023-03-20T23:56:39.058Z,31.60
2023-03-20T23:59:18.690Z,31.97
